Time;durP1;ratioP1;P1;durP2;ratioP2;P2;SDS_P1;SDS_P2;PMS_P1;PMS_P2;Temp;Humidity;BMP_temperature;BMP_pressure;BME280_temperature;BME280_humidity;BME280_pressure;Samples;Min_cycle;Max_cycle;Signal;HPM_P1;HPM_P2
2022/01/28 00:00:03;;;;;;;46.05;23.63;;;;;;;1.79;90.60;101820.16;5032934;28;20403;-83
2022/01/28 00:02:47;;;;;;;42.92;23.75;;;;;;;1.85;90.36;101821.38;5043508;28;20401;-82
2022/01/28 00:05:17;;;;;;;43.08;23.45;;;;;;;1.92;90.23;101827.78;5037423;28;20414;-82
2022/01/28 00:07:43;;;;;;;39.75;22.50;;;;;;;1.97;90.47;101825.50;5047566;28;20405;-82
2022/01/28 00:10:08;;;;;;;38.55;22.58;;;;;;;1.99;90.12;101827.00;5036205;28;20425;-82
2022/01/28 00:12:37;;;;;;;41.07;22.03;;;;;;;2.02;89.58;101821.34;5054100;28;20486;-82
2022/01/28 00:15:08;;;;;;;41.43;21.13;;;;;;;2.04;89.83;101816.66;5048026;28;20446;-81
2022/01/28 00:36:31;;;;;;;39.13;21.58;;;;;;;2.12;89.69;101815.03;5031280;28;20410;-82
2022/01/28 00:39:46;;;;;;;42.72;23.65;;;;;;;2.12;90.05;101855.16;5013443;28;20406;-82
2022/01/28 00:42:12;;;;;;;48.15;27.38;;;;;;;2.17;89.69;101850.19;5038728;28;20898;-82
2022/01/28 00:44:37;;;;;;;38.73;21.53;;;;;;;2.22;89.68;101855.91;5035043;28;20486;-82
2022/01/28 00:47:03;;;;;;;33.40;20.97;;;;;;;2.19;89.69;101861.56;5049536;28;20897;-82
2022/01/28 00:49:28;;;;;;;33.92;21.15;;;;;;;2.26;89.69;101855.44;5037805;28;20413;-82
2022/01/28 00:51:54;;;;;;;34.43;21.03;;;;;;;2.23;89.60;101857.59;5046744;28;20407;-82
2022/01/28 00:54:19;;;;;;;33.43;19.43;;;;;;;2.25;89.58;101864.44;5043554;28;20442;-82
2022/01/28 00:56:45;;;;;;;33.07;20.23;;;;;;;2.23;89.38;101877.16;5042407;28;20885;-82
2022/01/28 00:59:11;;;;;;;35.97;21.05;;;;;;;2.26;89.71;101886.69;5042017;28;20916;-82
2022/01/28 01:01:37;;;;;;;33.43;20.30;;;;;;;2.28;89.42;101888.22;5049571;28;20397;-82
2022/01/28 01:04:03;;;;;;;34.85;20.80;;;;;;;2.29;89.57;101881.88;5035414;28;20414;-82
2022/01/28 01:06:29;;;;;;;34.92;21.27;;;;;;;2.25;89.46;101879.66;5042289;28;20434;-82
2022/01/28 01:08:54;;;;;;;32.53;20.50;;;;;;;2.26;89.52;101870.66;5034325;28;20409;-82
2022/01/28 01:11:22;;;;;;;34.38;20.23;;;;;;;2.23;89.95;101863.78;5037620;28;20430;-82
2022/01/28 01:13:49;;;;;;;37.58;21.50;;;;;;;2.25;89.85;101876.97;5048217;28;20401;-82
2022/01/28 01:16:25;;;;;;;33.10;19.55;;;;;;;2.27;89.96;101872.34;5036099;28;20501;-82
2022/01/28 01:19:01;;;;;;;32.97;21.40;;;;;;;2.28;89.85;101866.81;5033968;28;20461;-82
2022/01/28 01:21:29;;;;;;;31.38;20.52;;;;;;;2.25;90.37;101871.63;5042160;28;20412;-82
2022/01/28 01:23:56;;;;;;;31.98;20.30;;;;;;;2.29;90.31;101873.00;5059610;28;20793;-82
2022/01/28 01:26:30;;;;;;;31.23;18.80;;;;;;;2.38;89.78;101875.56;5043518;28;20440;-82
2022/01/28 01:28:56;;;;;;;36.42;20.80;;;;;;;2.35;89.95;101880.41;5031900;28;20735;-82
2022/01/28 01:31:21;;;;;;;31.48;20.23;;;;;;;2.35;89.88;101885.75;5045913;28;20422;-82
2022/01/28 01:34:03;;;;;;;33.67;19.73;;;;;;;2.36;89.83;101898.97;5050173;28;20468;-82
2022/01/28 01:36:28;;;;;;;36.65;21.58;;;;;;;2.37;89.99;101887.25;5039995;28;20423;-82
2022/01/28 01:38:54;;;;;;;32.87;20.97;;;;;;;2.42;90.17;101897.50;5040637;28;20418;-82
2022/01/28 01:41:30;;;;;;;31.93;19.57;;;;;;;2.37;89.69;101889.94;5041054;28;20418;-82
2022/01/28 01:54:17;;;;;;;33.63;19.70;;;;;;;2.41;89.98;101906.53;5043726;28;20432;-82
2022/01/28 01:56:43;;;;;;;34.73;20.47;;;;;;;2.38;90.13;101914.88;5047204;28;20397;-82
2022/01/28 01:59:09;;;;;;;33.38;20.50;;;;;;;2.41;90.20;101915.38;5059506;28;20449;-82
2022/01/28 02:01:35;;;;;;;38.13;21.77;;;;;;;2.42;89.80;101913.56;5045622;28;20469;-83
2022/01/28 02:04:00;;;;;;;35.70;20.13;;;;;;;2.38;90.18;101914.88;5033035;28;20430;-82
2022/01/28 02:06:26;;;;;;;36.23;21.13;;;;;;;2.37;90.44;101916.69;5041412;28;20411;-82
2022/01/28 02:08:51;;;;;;;37.38;21.27;;;;;;;2.39;90.34;101916.56;5036289;28;20421;-82
2022/01/28 02:11:17;;;;;;;36.07;20.77;;;;;;;2.41;90.17;101930.59;5043581;28;20525;-82
2022/01/28 02:13:47;;;;;;;39.22;23.05;;;;;;;2.42;89.84;101910.88;5048779;28;20428;-82
2022/01/28 02:16:12;;;;;;;37.67;22.02;;;;;;;2.36;90.31;101914.19;5036200;28;20395;-82
2022/01/28 02:18:38;;;;;;;31.17;20.63;;;;;;;2.38;90.65;101913.03;5034196;28;20476;-82
2022/01/28 02:21:07;;;;;;;34.93;21.30;;;;;;;2.40;90.19;101915.56;5032811;28;20457;-82
2022/01/28 02:23:33;;;;;;;34.55;21.00;;;;;;;2.42;90.51;101917.09;5046921;28;20476;-82
2022/01/28 02:26:00;;;;;;;32.13;19.93;;;;;;;2.46;90.48;101918.47;5040470;28;20421;-82
2022/01/28 02:28:27;;;;;;;38.60;20.85;;;;;;;2.45;90.12;101932.81;5034556;28;20830;-83
2022/01/28 02:30:52;;;;;;;35.00;22.15;;;;;;;2.49;90.58;101930.66;5042222;28;20405;-82
2022/01/28 02:33:21;;;;;;;37.13;20.90;;;;;;;2.49;90.25;101928.00;5038204;28;20392;-82
2022/01/28 02:35:48;;;;;;;34.67;21.20;;;;;;;2.47;90.57;101940.72;5044564;28;20433;-82
2022/01/28 02:38:15;;;;;;;31.02;20.45;;;;;;;2.53;90.05;101945.44;5032157;28;20402;-82
2022/01/28 02:40:46;;;;;;;33.73;20.43;;;;;;;2.55;90.13;101951.44;5034342;28;20445;-82
2022/01/28 02:45:38;;;;;;;32.28;19.75;;;;;;;2.59;90.05;101945.63;5037009;28;20436;-82
2022/01/28 02:48:13;;;;;;;36.47;21.02;;;;;;;2.56;90.09;101943.28;5044593;28;20409;-82
2022/01/28 02:50:45;;;;;;;34.25;20.65;;;;;;;2.61;90.03;101958.84;5038120;28;21068;-82
2022/01/28 02:53:21;;;;;;;33.97;19.45;;;;;;;2.63;89.88;101958.72;5040071;28;20420;-83
2022/01/28 02:55:46;;;;;;;34.67;20.45;;;;;;;2.59;90.36;101963.53;5041224;28;20419;-82
2022/01/28 02:58:20;;;;;;;31.97;20.60;;;;;;;2.64;89.79;101955.84;5046046;28;20396;-82
2022/01/28 03:00:47;;;;;;;30.35;19.45;;;;;;;2.60;89.86;101952.66;5045003;28;20405;-83
2022/01/28 03:03:14;;;;;;;35.38;20.52;;;;;;;2.61;89.77;101965.03;5041109;28;20405;-82
2022/01/28 03:05:40;;;;;;;31.23;19.70;;;;;;;2.66;89.95;101971.78;5058599;28;20411;-82
2022/01/28 03:08:06;;;;;;;32.15;19.92;;;;;;;2.69;90.01;101972.31;5034610;28;20879;-82
2022/01/28 03:13:17;;;;;;;36.22;22.35;;;;;;;2.68;89.57;101965.25;5039983;28;20401;-82
2022/01/28 03:15:46;;;;;;;35.97;20.70;;;;;;;2.70;89.57;101968.59;5037702;28;20405;-82
2022/01/28 03:18:16;;;;;;;52.50;28.05;;;;;;;2.68;89.81;101975.13;5043114;28;20508;-82
2022/01/28 03:20:57;;;;;;;42.47;23.67;;;;;;;2.68;89.60;101972.44;5040451;28;20878;-82
2022/01/28 03:23:23;;;;;;;42.45;23.38;;;;;;;2.66;90.26;101977.13;5041354;28;20425;-82
2022/01/28 03:25:49;;;;;;;39.80;22.67;;;;;;;2.61;89.98;101974.91;5042639;28;20478;-82
2022/01/28 03:28:19;;;;;;;40.45;21.60;;;;;;;2.59;90.34;101990.28;5036358;28;20401;-82
2022/01/28 03:30:45;;;;;;;40.67;23.40;;;;;;;2.53;90.30;101982.88;5041699;28;20405;-82
2022/01/28 03:33:10;;;;;;;39.10;22.08;;;;;;;2.50;90.50;101981.34;5046466;28;20400;-82
2022/01/28 03:35:36;;;;;;;39.23;23.23;;;;;;;2.51;90.97;101975.00;5035568;28;20921;-82
2022/01/28 03:38:05;;;;;;;44.60;23.87;;;;;;;2.55;90.88;101980.88;5046628;28;20406;-82
2022/01/28 03:40:33;;;;;;;41.40;22.95;;;;;;;2.57;90.44;101982.41;5037582;28;20398;-82
2022/01/28 03:42:59;;;;;;;39.28;22.10;;;;;;;2.57;90.37;101984.22;5040956;28;20882;-82
2022/01/28 03:45:25;;;;;;;39.93;23.27;;;;;;;2.58;90.65;101985.91;5034684;28;20414;-82
2022/01/28 03:47:50;;;;;;;39.63;22.17;;;;;;;2.56;90.67;101994.13;5047285;28;20885;-82
2022/01/28 03:50:15;;;;;;;47.13;24.67;;;;;;;2.63;90.79;102003.19;5029952;28;20493;-82
2022/01/28 03:52:41;;;;;;;39.97;24.50;;;;;;;2.65;90.44;102000.38;5031620;28;20416;-82
2022/01/28 03:55:07;;;;;;;44.75;24.23;;;;;;;2.63;90.71;102013.88;5031572;28;20416;-82
2022/01/28 03:57:32;;;;;;;42.50;23.98;;;;;;;2.66;90.71;102014.59;5038582;28;20894;-82
2022/01/28 03:59:57;;;;;;;39.77;21.77;;;;;;;2.64;90.27;102020.09;5039595;28;20573;-82
2022/01/28 04:02:27;;;;;;;41.27;23.17;;;;;;;2.63;90.56;102027.28;5031265;28;20468;-82
2022/01/28 04:12:49;;;;;;;45.08;24.33;;;;;;;2.42;90.70;102024.09;5035474;28;20421;-82
2022/01/28 04:15:34;;;;;;;43.38;23.30;;;;;;;2.39;90.34;102028.91;5046403;28;20501;-82
2022/01/28 04:18:00;;;;;;;47.10;23.85;;;;;;;2.27;90.78;102025.66;5046772;28;20425;-82
2022/01/28 04:20:25;;;;;;;45.67;24.77;;;;;;;2.25;91.04;102032.13;5044684;28;20447;-82
2022/01/28 04:22:50;;;;;;;45.60;24.27;;;;;;;2.20;91.09;102034.44;5038657;28;20777;-82
2022/01/28 04:25:16;;;;;;;49.60;25.13;;;;;;;2.19;91.09;102038.09;5049980;28;20773;-82
2022/01/28 04:27:41;;;;;;;56.60;26.60;;;;;;;2.11;91.07;102032.66;5039960;28;20413;-82
2022/01/28 04:30:07;;;;;;;52.97;26.73;;;;;;;2.08;91.34;102037.31;5041104;28;20416;-82
2022/01/28 04:32:33;;;;;;;52.60;26.25;;;;;;;2.03;91.43;102034.25;5039252;28;20417;-82
2022/01/28 04:34:59;;;;;;;55.72;26.80;;;;;;;2.00;91.54;102029.22;5041649;28;20484;-82
2022/01/28 04:37:40;;;;;;;62.50;27.90;;;;;;;1.97;92.03;102042.03;5041572;28;20409;-84
2022/01/28 04:45:16;;;;;;;57.33;27.52;;;;;;;1.87;92.41;102043.94;5036933;28;20439;-82
2022/01/28 04:50:30;;;;;;;60.50;28.40;;;;;;;1.85;92.76;102061.94;5040513;28;20499;-82
2022/01/28 04:55:46;;;;;;;69.13;29.17;;;;;;;1.82;92.92;102056.88;5015878;28;20450;-82
2022/01/28 05:03:32;;;;;;;65.70;29.73;;;;;;;1.80;92.63;102046.38;5026947;28;20415;-82
2022/01/28 05:16:52;;;;;;;71.23;30.63;;;;;;;1.72;92.46;102059.63;5027570;28;20495;-82
2022/01/28 05:27:13;;;;;;;75.53;31.88;;;;;;;1.81;93.17;102064.06;5014385;28;20474;-82
2022/01/28 05:29:39;;;;;;;79.20;30.67;;;;;;;1.78;93.32;102076.91;5016837;28;20409;-82
2022/01/28 05:32:06;;;;;;;79.60;32.35;;;;;;;1.74;93.02;102076.38;5017887;28;20411;-82
2022/01/28 05:34:31;;;;;;;79.65;32.50;;;;;;;1.73;93.14;102087.19;5026822;28;20408;-82
2022/01/28 05:36:57;;;;;;;79.77;32.70;;;;;;;1.72;93.40;102085.50;5024716;28;20415;-82
2022/01/28 05:39:22;;;;;;;80.95;34.45;;;;;;;1.80;93.69;102082.94;5023960;28;20786;-82
2022/01/28 05:41:47;;;;;;;78.87;32.57;;;;;;;1.86;93.74;102083.19;5007009;28;20500;-81
2022/01/28 05:44:13;;;;;;;80.17;32.47;;;;;;;1.93;93.50;102081.59;5009958;28;20430;-82
2022/01/28 05:46:39;;;;;;;75.23;31.43;;;;;;;1.91;93.58;102077.41;5019651;28;20483;-81
2022/01/28 05:49:05;;;;;;;81.27;32.23;;;;;;;1.91;93.44;102080.06;5027090;28;20387;-81
2022/01/28 05:51:30;;;;;;;77.82;31.85;;;;;;;1.85;93.35;102083.31;5013823;28;20450;-84
2022/01/28 05:53:59;;;;;;;83.83;34.00;;;;;;;1.82;92.90;102086.28;5017734;28;20435;-82
2022/01/28 05:56:25;;;;;;;83.40;33.35;;;;;;;1.78;92.94;102091.09;5018476;28;20413;-82
2022/01/28 05:58:51;;;;;;;88.97;34.00;;;;;;;1.75;93.05;102098.56;5012743;28;20409;-82
2022/01/28 06:01:17;;;;;;;90.60;34.20;;;;;;;1.74;93.08;102111.13;5013070;28;20732;-82
2022/01/28 06:03:44;;;;;;;90.33;35.63;;;;;;;1.73;93.09;102114.75;5019153;28;20503;-81
2022/01/28 06:06:13;;;;;;;90.30;35.80;;;;;;;1.72;93.19;102117.56;5012935;28;20900;-80
2022/01/28 06:08:38;;;;;;;89.63;35.50;;;;;;;1.70;93.63;102124.91;5008675;28;20843;-82
2022/01/28 06:11:03;;;;;;;85.97;34.23;;;;;;;1.66;93.27;102142.22;5012622;28;20416;-83
2022/01/28 06:13:29;;;;;;;88.47;35.07;;;;;;;1.65;93.36;102144.03;5017959;28;20762;-83
2022/01/28 06:15:56;;;;;;;90.40;34.33;;;;;;;1.66;93.36;102140.38;5013507;28;20471;-82
2022/01/28 06:18:21;;;;;;;99.13;35.08;;;;;;;1.60;93.52;102140.97;5020861;28;20418;-81
2022/01/28 06:20:46;;;;;;;90.20;33.27;;;;;;;1.62;93.29;102139.00;5022638;28;20416;-80
2022/01/28 06:23:12;;;;;;;88.67;33.83;;;;;;;1.60;93.23;102150.81;5023507;28;20875;-84
2022/01/28 06:25:39;;;;;;;92.43;33.47;;;;;;;1.56;93.26;102161.78;5020414;28;20387;-82
2022/01/28 06:28:04;;;;;;;91.25;33.03;;;;;;;1.54;93.82;102169.13;5022411;28;20415;-78
2022/01/28 06:30:30;;;;;;;95.53;35.37;;;;;;;1.60;93.85;102162.34;5029720;28;20407;-81
2022/01/28 06:32:55;;;;;;;95.33;34.50;;;;;;;1.61;93.84;102152.50;5016681;28;20493;-84
2022/01/28 06:35:20;;;;;;;88.85;34.10;;;;;;;1.62;94.12;102155.03;5012360;28;20419;-82
2022/01/28 06:37:46;;;;;;;85.50;33.20;;;;;;;1.56;94.12;102153.78;5019753;28;20443;-82
2022/01/28 06:40:15;;;;;;;90.83;33.87;;;;;;;1.53;93.60;102147.88;5016652;28;20455;-85
2022/01/28 06:42:41;;;;;;;93.07;35.15;;;;;;;1.50;93.80;102141.00;5012461;28;20795;-81
2022/01/28 06:45:07;;;;;;;95.10;34.00;;;;;;;1.49;93.75;102141.97;5013683;28;20436;-81
2022/01/28 06:47:35;;;;;;;95.78;34.75;;;;;;;1.47;93.72;102151.13;5019938;28;20431;-79
2022/01/28 06:50:02;;;;;;;97.55;35.42;;;;;;;1.49;93.83;102149.16;5013628;28;20412;-84
2022/01/28 06:52:28;;;;;;;96.15;35.75;;;;;;;1.43;93.37;102142.56;5026755;28;20422;-78
2022/01/28 06:54:53;;;;;;;95.88;36.50;;;;;;;1.46;93.31;102152.13;5016751;28;20445;-78
2022/01/28 06:57:18;;;;;;;94.70;35.67;;;;;;;1.42;93.26;102156.91;5011734;28;20397;-79
2022/01/28 06:59:44;;;;;;;95.70;36.00;;;;;;;1.41;93.25;102165.06;5023214;28;20754;-79
2022/01/28 07:02:10;;;;;;;99.43;36.00;;;;;;;1.44;93.42;102170.13;5019320;28;20888;-79
2022/01/28 07:04:35;;;;;;;104.43;37.40;;;;;;;1.55;93.94;102167.28;5014343;28;20940;-79
2022/01/28 07:07:00;;;;;;;95.03;35.77;;;;;;;1.68;93.90;102167.78;5012120;28;20479;-79
2022/01/28 07:09:26;;;;;;;89.87;35.27;;;;;;;1.74;94.44;102177.94;5021780;28;21354;-80
2022/01/28 07:11:51;;;;;;;91.60;34.72;;;;;;;1.85;94.27;102183.06;5027051;28;20411;-80
2022/01/28 07:14:17;;;;;;;85.20;33.93;;;;;;;1.90;94.15;102180.81;5014024;28;20407;-79
2022/01/28 07:16:42;;;;;;;83.32;33.75;;;;;;;1.96;94.21;102180.22;5018082;28;20479;-79
2022/01/28 07:19:09;;;;;;;75.53;31.60;;;;;;;1.97;94.45;102173.91;5025089;28;20497;-78
2022/01/28 07:21:35;;;;;;;71.53;31.95;;;;;;;2.00;94.27;102192.31;5030814;28;20430;-78
2022/01/28 07:24:00;;;;;;;69.75;31.00;;;;;;;2.00;94.02;102197.66;5012544;28;20416;-79
2022/01/28 07:26:26;;;;;;;66.93;30.50;;;;;;;2.02;94.22;102205.53;5015085;28;20415;-79
2022/01/28 07:28:52;;;;;;;68.50;29.40;;;;;;;2.03;93.83;102208.06;5021056;28;20913;-79
2022/01/28 07:31:18;;;;;;;60.90;29.33;;;;;;;2.02;93.73;102202.84;5012029;28;20503;-78
2022/01/28 07:33:45;;;;;;;63.28;28.92;;;;;;;2.07;93.51;102216.66;5023317;28;20419;-76
2022/01/28 07:36:10;;;;;;;65.50;28.45;;;;;;;2.08;93.76;102220.97;5009833;28;20459;-77
2022/01/28 07:38:36;;;;;;;60.20;28.37;;;;;;;2.14;93.20;102233.75;5016087;28;20899;-77
2022/01/28 07:41:02;;;;;;;62.13;27.67;;;;;;;2.19;93.36;102234.19;5016249;28;20427;-78
2022/01/28 07:43:27;;;;;;;59.78;27.55;;;;;;;2.22;92.98;102228.53;5019462;28;20485;-78
2022/01/28 07:45:53;;;;;;;57.80;27.37;;;;;;;2.23;93.29;102226.69;5011829;28;20419;-77
2022/01/28 07:48:19;;;;;;;59.17;28.30;;;;;;;2.28;93.25;102232.44;5014290;28;20475;-78
2022/01/28 07:50:44;;;;;;;54.08;28.05;;;;;;;2.26;92.80;102235.28;5015346;28;20413;-78
2022/01/28 07:53:14;;;;;;;61.77;29.53;;;;;;;2.24;93.00;102236.41;5015322;28;20439;-77
2022/01/28 07:55:39;;;;;;;51.30;26.40;;;;;;;2.34;92.90;102235.38;5014944;28;20479;-77
2022/01/28 07:58:04;;;;;;;57.53;28.37;;;;;;;2.44;92.69;102236.16;5020789;28;20800;-77
2022/01/28 08:00:30;;;;;;;56.07;28.60;;;;;;;2.47;92.24;102235.03;5019398;28;20950;-78
2022/01/28 08:02:55;;;;;;;59.13;27.50;;;;;;;2.47;91.86;102246.56;5014769;28;20496;-77
2022/01/28 08:05:20;;;;;;;49.37;26.83;;;;;;;2.47;92.08;102251.91;5023878;28;20893;-77
2022/01/28 08:07:47;;;;;;;52.30;26.07;;;;;;;2.40;91.82;102258.88;5018923;28;22478;-78
2022/01/28 08:10:16;;;;;;;52.55;28.05;;;;;;;2.50;92.00;102269.53;5020576;28;20458;-78
2022/01/28 08:12:52;;;;;;;49.42;26.70;;;;;;;2.49;91.64;102271.34;5012653;28;20412;-78
2022/01/28 08:15:19;;;;;;;46.75;25.33;;;;;;;2.49;91.73;102273.19;5033568;28;20752;-78
2022/01/28 08:17:44;;;;;;;44.97;24.25;;;;;;;2.52;91.56;102272.88;5014520;28;20420;-77
2022/01/28 08:20:11;;;;;;;42.93;23.63;;;;;;;2.47;91.75;102293.91;5020667;28;20414;-78
2022/01/28 08:22:50;;;;;;;42.72;23.25;;;;;;;2.51;91.62;102289.94;5022242;28;21184;-78
2022/01/28 08:25:17;;;;;;;48.67;25.17;;;;;;;2.52;91.56;102283.59;5021043;28;20499;-78
2022/01/28 08:27:44;;;;;;;43.60;24.13;;;;;;;2.54;91.50;102274.41;5024061;28;20744;-78
2022/01/28 08:30:15;;;;;;;41.92;22.38;;;;;;;2.63;91.41;102274.53;5017757;28;20412;-77
2022/01/28 08:32:40;;;;;;;39.13;23.77;;;;;;;2.74;90.59;102267.13;5013983;28;21189;-76
2022/01/28 08:35:07;;;;;;;41.25;22.55;;;;;;;2.79;90.59;102274.72;5025232;28;20415;-77
2022/01/28 08:37:32;;;;;;;40.33;23.30;;;;;;;2.85;90.27;102269.59;5022571;28;20445;-77
2022/01/28 08:39:59;;;;;;;41.33;23.57;;;;;;;2.78;90.23;102267.66;5019148;28;20403;-78
2022/01/28 08:42:24;;;;;;;42.28;23.45;;;;;;;2.83;90.23;102284.97;5012850;28;20425;-80
2022/01/28 08:44:50;;;;;;;44.87;24.07;;;;;;;2.91;90.33;102281.53;5023298;28;20420;-77
2022/01/28 08:47:15;;;;;;;38.23;22.57;;;;;;;2.96;90.00;102293.50;5030931;28;20423;-78
2022/01/28 08:49:40;;;;;;;38.55;22.92;;;;;;;2.91;90.40;102287.75;5018984;28;20762;-77
2022/01/28 08:52:06;;;;;;;39.53;23.53;;;;;;;3.10;90.10;102297.47;5017969;28;20501;-77
2022/01/28 08:54:31;;;;;;;37.10;22.93;;;;;;;3.11;89.42;102301.84;5015999;28;20448;-78
2022/01/28 08:56:57;;;;;;;38.17;21.83;;;;;;;3.09;89.21;102285.94;5017469;28;20423;-78
2022/01/28 08:59:22;;;;;;;38.20;21.83;;;;;;;3.10;89.25;102292.97;5015207;28;20424;-77
2022/01/28 09:01:47;;;;;;;35.45;20.23;;;;;;;3.21;89.20;102289.22;5020227;28;20421;-78
2022/01/28 09:04:12;;;;;;;34.70;20.60;;;;;;;3.32;89.14;102283.66;5021417;28;20835;-77
2022/01/28 09:06:38;;;;;;;32.50;19.93;;;;;;;3.41;88.47;102284.56;5030593;28;20445;-77
2022/01/28 09:09:04;;;;;;;31.33;19.40;;;;;;;3.46;87.99;102301.84;5028872;28;20449;-77
2022/01/28 09:11:52;;;;;;;31.45;18.73;;;;;;;3.51;87.73;102283.50;5027513;28;20407;-77
2022/01/28 09:14:19;;;;;;;32.75;20.63;;;;;;;3.54;87.53;102285.00;5030494;28;20397;-77
2022/01/28 09:16:44;;;;;;;34.03;19.08;;;;;;;3.62;87.77;102296.63;5014498;28;20729;-78
2022/01/28 09:19:09;;;;;;;29.63;17.50;;;;;;;3.62;87.15;102291.25;5023424;28;20482;-77
2022/01/28 09:21:35;;;;;;;31.37;19.67;;;;;;;3.64;86.67;102294.66;5027382;28;20797;-77
2022/01/28 09:24:00;;;;;;;33.00;20.53;;;;;;;3.72;86.54;102291.22;5018111;28;20436;-78
2022/01/28 09:26:26;;;;;;;32.47;19.87;;;;;;;3.89;86.28;102281.41;5029905;28;20421;-77
2022/01/28 09:28:51;;;;;;;27.67;17.27;;;;;;;3.84;86.06;102284.59;5029238;28;20909;-78
2022/01/28 09:31:16;;;;;;;30.48;19.38;;;;;;;3.89;85.75;102281.41;5016562;28;20435;-77
2022/01/28 09:33:43;;;;;;;29.47;18.90;;;;;;;3.86;86.10;102287.09;5015081;28;20449;-77
2022/01/28 09:36:08;;;;;;;31.35;19.35;;;;;;;4.03;85.87;102288.91;5024885;28;20419;-77
2022/01/28 09:38:34;;;;;;;28.58;17.77;;;;;;;4.13;85.13;102290.47;5033629;28;20751;-77
2022/01/28 09:41:02;;;;;;;25.60;17.00;;;;;;;4.15;85.36;102298.34;5020725;28;20808;-77
2022/01/28 09:43:28;;;;;;;27.90;16.58;;;;;;;4.08;85.35;102308.88;5017122;28;20438;-77
2022/01/28 09:45:54;;;;;;;28.40;17.20;;;;;;;4.05;85.03;102314.56;5019422;28;20447;-77
2022/01/28 09:48:20;;;;;;;26.50;17.13;;;;;;;4.12;85.68;102314.78;5023966;28;20908;-77
2022/01/28 09:50:46;;;;;;;27.37;16.97;;;;;;;4.15;85.46;102317.13;5025488;28;20407;-78
2022/01/28 09:53:12;;;;;;;26.92;16.80;;;;;;;4.22;84.78;102323.56;5025966;28;20407;-77
2022/01/28 09:55:38;;;;;;;30.98;18.58;;;;;;;4.36;84.59;102327.50;5018024;28;20426;-78
2022/01/28 09:58:04;;;;;;;25.27;17.13;;;;;;;4.30;84.23;102329.00;5022882;28;20418;-78
2022/01/28 10:00:34;;;;;;;30.10;19.20;;;;;;;4.23;84.69;102329.78;5014019;28;20607;-78
2022/01/28 10:03:03;;;;;;;27.30;16.80;;;;;;;4.17;84.57;102331.25;5023078;28;20502;-77
2022/01/28 10:05:36;;;;;;;26.42;17.23;;;;;;;4.37;84.23;102342.63;5032396;28;20415;-77
2022/01/28 10:08:05;;;;;;;26.88;17.63;;;;;;;4.35;84.02;102339.22;5015867;28;20439;-78
2022/01/28 10:10:59;;;;;;;26.27;16.20;;;;;;;4.07;84.53;102339.41;5015689;28;20405;-78
2022/01/28 10:13:40;;;;;;;24.23;16.08;;;;;;;4.16;85.04;102335.78;5016631;28;20842;-77
2022/01/28 10:16:09;;;;;;;22.73;15.55;;;;;;;4.48;84.55;102332.44;5018995;28;20410;-78
2022/01/28 10:18:35;;;;;;;22.67;15.83;;;;;;;4.70;83.21;102333.75;5016674;28;20501;-77
2022/01/28 10:21:00;;;;;;;22.97;15.17;;;;;;;4.79;83.35;102332.75;5019952;28;20411;-78
2022/01/28 10:23:25;;;;;;;25.38;16.10;;;;;;;5.12;82.21;102344.47;5015707;28;20836;-78
2022/01/28 10:25:56;;;;;;;21.53;15.30;;;;;;;4.90;81.51;102335.16;5011564;28;20959;-78
2022/01/28 10:28:22;;;;;;;27.67;18.00;;;;;;;4.84;82.15;102337.66;5016048;28;20445;-78
2022/01/28 10:30:47;;;;;;;25.40;16.67;;;;;;;4.78;82.50;102338.28;5018407;28;20545;-78
2022/01/28 10:33:15;;;;;;;22.37;15.57;;;;;;;4.76;82.13;102325.03;5021943;28;20451;-78
2022/01/28 10:35:57;;;;;;;22.60;16.67;;;;;;;4.99;82.52;102333.34;5014646;28;20418;-78
2022/01/28 10:38:37;;;;;;;22.92;16.15;;;;;;;5.45;80.73;102322.03;5020648;28;20822;-78
2022/01/28 10:41:07;;;;;;;25.83;16.23;;;;;;;5.38;80.56;102331.75;5012209;28;20467;-78
2022/01/28 10:43:41;;;;;;;24.23;15.90;;;;;;;5.22;81.21;102331.72;5013415;28;20437;-78
2022/01/28 10:46:07;;;;;;;24.90;17.02;;;;;;;5.12;81.41;102333.72;5022707;28;20905;-78
2022/01/28 10:48:32;;;;;;;27.10;17.10;;;;;;;4.95;82.10;102340.88;5027782;28;20465;-78
2022/01/28 10:50:58;;;;;;;26.80;16.55;;;;;;;4.95;82.34;102340.88;5012620;28;20424;-78
2022/01/28 10:53:27;;;;;;;24.08;17.70;;;;;;;4.76;82.79;102345.66;5026043;28;20411;-78
2022/01/28 10:55:54;;;;;;;27.38;17.52;;;;;;;4.71;83.79;102341.63;5012456;28;20408;-78
2022/01/28 10:58:24;;;;;;;26.58;16.95;;;;;;;4.82;83.96;102336.97;5019686;28;20424;-78
2022/01/28 11:00:53;;;;;;;38.37;19.33;;;;;;;4.99;83.36;102336.88;5019969;28;20463;-77
2022/01/28 11:03:26;;;;;;;27.10;17.35;;;;;;;5.03;83.03;102335.56;5019986;28;20766;-77
2022/01/28 11:05:56;;;;;;;25.23;17.48;;;;;;;5.02;83.19;102338.38;5018954;28;20443;-77
2022/01/28 11:08:24;;;;;;;30.33;18.33;;;;;;;5.20;83.02;102333.75;5012573;28;20407;-77
2022/01/28 11:10:50;;;;;;;33.33;17.48;;;;;;;5.22;82.58;102339.78;5016531;28;20772;-76
2022/01/28 11:13:16;;;;;;;26.33;16.92;;;;;;;5.20;82.48;102337.25;5022654;28;20422;-77
2022/01/28 11:15:42;;;;;;;27.08;17.40;;;;;;;5.17;82.78;102339.47;5017510;28;20443;-76
2022/01/28 11:18:09;;;;;;;28.50;17.43;;;;;;;5.33;82.31;102336.81;5023346;28;20436;-77
2022/01/28 11:20:54;;;;;;;23.83;17.30;;;;;;;5.20;82.72;102353.38;5029509;28;20413;-77
2022/01/28 11:23:29;;;;;;;29.75;18.63;;;;;;;5.25;82.93;102344.84;5016535;28;20466;-77
2022/01/28 11:26:12;;;;;;;30.48;17.58;;;;;;;5.49;82.17;102333.28;5020616;28;20415;-77
2022/01/28 11:28:42;;;;;;;25.98;16.77;;;;;;;5.51;82.33;102344.72;5014712;28;20795;-77
2022/01/28 11:31:09;;;;;;;28.98;18.60;;;;;;;5.68;81.98;102341.03;5019778;28;20409;-78
2022/01/28 11:33:47;;;;;;;26.85;18.02;;;;;;;5.59;81.55;102339.38;5037136;28;20407;-77
2022/01/28 11:36:14;;;;;;;24.30;16.75;;;;;;;5.63;81.27;102335.34;5022945;28;20898;-78
2022/01/28 11:38:42;;;;;;;23.67;16.70;;;;;;;5.85;80.98;102331.97;5024802;28;20399;-76
2022/01/28 11:41:11;;;;;;;29.00;17.35;;;;;;;6.08;79.61;102338.38;5034518;28;20798;-78
2022/01/28 11:43:54;;;;;;;26.63;17.48;;;;;;;6.00;79.21;102326.75;5017212;28;20415;-77
2022/01/28 11:46:23;;;;;;;25.35;16.63;;;;;;;6.03;79.25;102332.66;5024815;28;20446;-77
2022/01/28 11:48:51;;;;;;;24.42;16.38;;;;;;;5.81;80.01;102319.84;5015068;28;20400;-77
2022/01/28 11:51:16;;;;;;;26.52;16.17;;;;;;;6.00;79.70;102326.75;5011300;28;20823;-77
2022/01/28 11:53:56;;;;;;;26.13;16.33;;;;;;;6.37;78.76;102320.81;5011115;28;20416;-77
2022/01/28 11:56:24;;;;;;;28.02;16.55;;;;;;;6.20;77.83;102314.63;5010391;28;20739;-77
2022/01/28 11:59:02;;;;;;;24.27;15.93;;;;;;;5.99;78.46;102315.19;5019611;28;20418;-81
2022/01/28 12:01:36;;;;;;;27.77;15.52;;;;;;;5.74;78.25;102313.47;5026188;28;20422;-77
2022/01/28 12:04:26;;;;;;;28.38;16.33;;;;;;;5.62;78.94;102312.13;5009612;28;20894;-77
2022/01/28 12:07:06;;;;;;;23.90;15.05;;;;;;;5.68;79.30;102306.91;5011614;28;20461;-77
2022/01/28 12:09:34;;;;;;;24.48;15.02;;;;;;;5.70;78.99;102301.34;5012039;28;20450;-77
2022/01/28 12:12:01;;;;;;;20.10;14.18;;;;;;;5.86;78.94;102311.31;5011593;28;20419;-78
2022/01/28 12:14:56;;;;;;;22.05;14.65;;;;;;;5.99;77.96;102312.50;5011283;28;20423;-77
2022/01/28 12:17:31;;;;;;;20.87;13.67;;;;;;;6.07;77.16;102311.63;5012033;28;20837;-78
2022/01/28 12:20:22;;;;;;;23.25;14.43;;;;;;;6.38;77.04;102309.06;5007805;28;20416;-78
2022/01/28 12:23:02;;;;;;;21.65;13.05;;;;;;;6.47;76.30;102290.00;5010355;28;20494;-77
2022/01/28 12:25:36;;;;;;;25.27;14.13;;;;;;;6.35;76.15;102274.38;5014872;28;20917;-78
2022/01/28 12:28:40;;;;;;;22.58;14.15;;;;;;;6.11;76.71;102268.06;5011999;28;20934;-78
2022/01/28 12:31:14;;;;;;;30.65;14.00;;;;;;;6.00;76.69;102265.72;5013269;28;20781;-78
2022/01/28 12:33:42;;;;;;;23.33;13.95;;;;;;;5.99;77.02;102280.19;5013015;28;20412;-79
2022/01/28 12:36:11;;;;;;;26.33;14.05;;;;;;;5.85;76.87;102280.84;5014553;28;20794;-80
2022/01/28 12:38:42;;;;;;;21.13;13.20;;;;;;;5.92;76.91;102281.03;5013716;28;20416;-78